Hovedside
METAR-TAF:

METAR-TAF

Lufthavner :

Antsiranana, Madagaskar

breddegrad: 12-21S, lengdegrad: 049-18E, høyde over havet: 114 m

Gjeldene værobservasjon

Denne rapporten ble laget for 5 timer og 43 minutter siden, klokken 15:00 UTC
Vind 6 kt fra Øst-sørøst
Temperatur 27°C
Luftfuktighet 74%
Trykk 1011 hPa
Sikt 10 km eller mer
Brutte skyer i en høyde av 2000 ft

METAR: FMNA 281500Z 12006KT 9999 BKN020 27/22 Q1011

Tid: 23:43 (20:43 UTC)

Varsel

Denne rapporten ble laget for 3 timer og 43 minutter siden, klokken 17:00 UTC
Varsel gyldig fra 28. klokken 18 UTC til 29. klokken 18 UTC
Vind 10 kt fra Øst-sørøst
Sikt 10 km eller mer
Få skyer i en høyde av 2000 ft
Brutte skyer i en høyde av 4000 ft

TAF: FMNA 281700Z 2818/2918 12010KT 9999 FEW020 BKN040

Værobservasjoner og værvarsel for over 4000 flyplasser (METAR- og TAF-rapporter).

Tilgjengelige stasjoner er representert av de røde og gule prikkene på kartet.

Hold musepekeren over prikken for å se navnet på stasjonen.

Klikk så for å se værobservasjoner og -varsler.

For å forandre kartet kan du klikke på den grønne knappen med svart kryss for å zoome inn, på den grønne knappen med strek for å zoome ut, eller på de grønne pilene for å se tilstøtende kart.


METAR-TAF: